Aérodrome :







RETROUVEZ-NOUS SUR...

 
LOGIN :

S'inscrire | Disclaimer

   EN    FR    IT 

 









Légende :    VFR   VFR Marginal   IFR   IFR Intensif   IFR Très Intensif
Visi : 
Plafond : 
>= 8 km
>= 3000ft
5 à 8 km
1000 à 3000 ft
1500m à 5 km
500 à 1000 ft
800 à 1500m
200 à 500 ft
< 800m
< 200 ft
Symboles :   Orages  Brouillard  Fortes neiges  Fortes précipitations  Vent > 20 kt







- Altitude de l'aérodrome : 11 ft


KGHG - Marshfield Municipal George Harlow Field

DERNIER METAR :
  • 220335Z AUTO 18004KT 10SM CLR 13/13 A3012 RMK AO2

METARs EXPIRÉS :
  • 220315Z AUTO 18005KT 10SM CLR 13/13 A3012 RMK AO2
  • 220255Z AUTO 18006KT 10SM CLR 14/13 A3012 RMK AO2
  • 220235Z AUTO 17007KT 10SM CLR 14/13 A3013 RMK AO2
  • 220215Z AUTO 16005KT 10SM CLR 14/13 A3012 RMK AO2
  • 220155Z AUTO 18005KT 10SM CLR 14/13 A3013 RMK AO2
  • 220135Z AUTO 20003KT 10SM CLR 15/13 A3013 RMK AO2
  • 220115Z AUTO 17006KT 10SM CLR 15/13 A3013 RMK AO2
  • 220055Z AUTO 19005KT 10SM CLR 15/13 A3013 RMK AO2

TAF N/A
FIR KZBW / Amérique du Nord



MET'MAP, la Météo Aéronautique d'un coup d'oeil ! - Copyright ORBIFLY Décembre 2007 - Disclaimer

ORBIFLY MET'MAP TEAM :

Programmation & Développement : Alexandra Zaïnal
Conception & Développement : Baudouin d'Aumeries
Co-Programmation & Développement : Marc-Olivier Méhu
Soutien technique & logistique : Manuel Goepfert

Contact : metmap@orbifly.com




SOURCES & CREDITS :

   NOAA